sensor_id;sensor_type;location;lat;lon;timestamp;P1;durP1;ratioP1;P2;durP2;ratioP2
25531;SDS011;13429;48.816;9.118;2022-12-18T00:09:31;78.43;;;35.30;;
25531;SDS011;13429;48.816;9.118;2022-12-18T00:15:01;80.93;;;36.45;;
25531;SDS011;13429;48.816;9.118;2022-12-18T00:17:27;88.70;;;36.88;;
25531;SDS011;13429;48.816;9.118;2022-12-18T00:26:00;76.85;;;32.88;;
25531;SDS011;13429;48.816;9.118;2022-12-18T00:28:27;82.68;;;35.22;;
25531;SDS011;13429;48.816;9.118;2022-12-18T00:40:03;74.57;;;31.35;;
25531;SDS011;13429;48.816;9.118;2022-12-18T00:42:30;74.10;;;32.55;;
25531;SDS011;13429;48.816;9.118;2022-12-18T00:48:18;74.22;;;32.33;;
25531;SDS011;13429;48.816;9.118;2022-12-18T00:50:44;72.40;;;32.22;;
25531;SDS011;13429;48.816;9.118;2022-12-18T00:53:11;67.63;;;30.20;;
25531;SDS011;13429;48.816;9.118;2022-12-18T00:58:40;76.07;;;32.25;;
25531;SDS011;13429;48.816;9.118;2022-12-18T01:10:17;79.78;;;33.30;;
25531;SDS011;13429;48.816;9.118;2022-12-18T01:18:47;79.28;;;30.67;;
25531;SDS011;13429;48.816;9.118;2022-12-18T01:27:20;73.45;;;33.72;;
25531;SDS011;13429;48.816;9.118;2022-12-18T01:29:46;79.30;;;33.53;;
25531;SDS011;13429;48.816;9.118;2022-12-18T01:32:12;82.70;;;34.92;;
25531;SDS011;13429;48.816;9.118;2022-12-18T01:37:56;81.30;;;34.08;;
25531;SDS011;13429;48.816;9.118;2022-12-18T01:43:46;77.40;;;34.25;;
25531;SDS011;13429;48.816;9.118;2022-12-18T01:46:12;81.85;;;33.72;;
25531;SDS011;13429;48.816;9.118;2022-12-18T02:01:37;83.25;;;35.20;;
25531;SDS011;13429;48.816;9.118;2022-12-18T02:18:41;75.72;;;34.58;;
25531;SDS011;13429;48.816;9.118;2022-12-18T02:27:13;79.67;;;37.43;;
25531;SDS011;13429;48.816;9.118;2022-12-18T02:35:46;98.85;;;42.58;;
25531;SDS011;13429;48.816;9.118;2022-12-18T02:38:13;94.20;;;41.42;;
25531;SDS011;13429;48.816;9.118;2022-12-18T02:43:47;82.38;;;37.88;;
25531;SDS011;13429;48.816;9.118;2022-12-18T02:46:31;88.70;;;41.40;;
25531;SDS011;13429;48.816;9.118;2022-12-18T02:57:56;92.40;;;37.38;;
25531;SDS011;13429;48.816;9.118;2022-12-18T03:03:29;78.30;;;35.17;;
25531;SDS011;13429;48.816;9.118;2022-12-18T03:12:09;79.45;;;33.45;;
25531;SDS011;13429;48.816;9.118;2022-12-18T03:14:52;91.32;;;38.47;;
25531;SDS011;13429;48.816;9.118;2022-12-18T03:20:38;96.28;;;42.35;;
25531;SDS011;13429;48.816;9.118;2022-12-18T03:26:10;93.13;;;38.83;;
25531;SDS011;13429;48.816;9.118;2022-12-18T03:28:38;86.63;;;36.15;;
25531;SDS011;13429;48.816;9.118;2022-12-18T03:37:12;77.65;;;33.45;;
25531;SDS011;13429;48.816;9.118;2022-12-18T03:39:38;85.50;;;37.20;;
25531;SDS011;13429;48.816;9.118;2022-12-18T03:48:16;72.32;;;32.20;;
25531;SDS011;13429;48.816;9.118;2022-12-18T03:56:12;93.85;;;37.97;;
25531;SDS011;13429;48.816;9.118;2022-12-18T04:07:50;75.82;;;31.92;;
25531;SDS011;13429;48.816;9.118;2022-12-18T04:10:17;72.82;;;30.90;;
25531;SDS011;13429;48.816;9.118;2022-12-18T04:21:53;66.28;;;28.65;;
25531;SDS011;13429;48.816;9.118;2022-12-18T04:24:19;76.80;;;30.58;;
25531;SDS011;13429;48.816;9.118;2022-12-18T04:36:02;77.15;;;29.52;;
25531;SDS011;13429;48.816;9.118;2022-12-18T04:38:28;67.82;;;28.25;;
25531;SDS011;13429;48.816;9.118;2022-12-18T04:49:58;68.72;;;29.83;;
25531;SDS011;13429;48.816;9.118;2022-12-18T04:52:24;65.47;;;27.67;;
25531;SDS011;13429;48.816;9.118;2022-12-18T05:04:19;65.15;;;26.58;;
25531;SDS011;13429;48.816;9.118;2022-12-18T05:06:45;50.08;;;25.38;;
25531;SDS011;13429;48.816;9.118;2022-12-18T05:15:18;52.72;;;24.25;;
25531;SDS011;13429;48.816;9.118;2022-12-18T05:36:06;57.63;;;25.17;;
25531;SDS011;13429;48.816;9.118;2022-12-18T05:38:33;62.42;;;25.85;;
25531;SDS011;13429;48.816;9.118;2022-12-18T05:47:07;60.03;;;26.35;;
25531;SDS011;13429;48.816;9.118;2022-12-18T05:55:40;59.90;;;26.13;;
25531;SDS011;13429;48.816;9.118;2022-12-18T05:58:07;58.05;;;24.67;;
25531;SDS011;13429;48.816;9.118;2022-12-18T06:07:08;55.00;;;24.50;;
25531;SDS011;13429;48.816;9.118;2022-12-18T06:15:41;56.92;;;23.33;;
25531;SDS011;13429;48.816;9.118;2022-12-18T06:33:26;58.03;;;24.25;;
25531;SDS011;13429;48.816;9.118;2022-12-18T06:35:52;56.42;;;24.63;;
25531;SDS011;13429;48.816;9.118;2022-12-18T06:41:22;56.53;;;24.80;;
25531;SDS011;13429;48.816;9.118;2022-12-18T06:43:48;50.13;;;22.27;;
25531;SDS011;13429;48.816;9.118;2022-12-18T06:52:21;51.75;;;22.95;;
25531;SDS011;13429;48.816;9.118;2022-12-18T06:54:47;50.03;;;21.70;;
25531;SDS011;13429;48.816;9.118;2022-12-18T07:00:16;51.15;;;22.67;;
25531;SDS011;13429;48.816;9.118;2022-12-18T07:02:43;56.95;;;24.27;;
25531;SDS011;13429;48.816;9.118;2022-12-18T07:08:12;48.30;;;22.65;;
25531;SDS011;13429;48.816;9.118;2022-12-18T09:30:43;63.90;;;30.67;;
25531;SDS011;13429;48.816;9.118;2022-12-18T09:33:09;66.03;;;31.45;;
25531;SDS011;13429;48.816;9.118;2022-12-18T09:35:36;67.70;;;31.50;;
25531;SDS011;13429;48.816;9.118;2022-12-18T09:38:02;66.97;;;31.73;;
25531;SDS011;13429;48.816;9.118;2022-12-18T09:40:28;65.00;;;31.25;;
25531;SDS011;13429;48.816;9.118;2022-12-18T09:42:57;71.25;;;29.98;;
25531;SDS011;13429;48.816;9.118;2022-12-18T09:45:25;63.47;;;30.90;;
25531;SDS011;13429;48.816;9.118;2022-12-18T09:47:51;73.40;;;34.10;;
25531;SDS011;13429;48.816;9.118;2022-12-18T09:50:24;64.70;;;31.13;;
25531;SDS011;13429;48.816;9.118;2022-12-18T09:52:53;70.85;;;32.58;;
25531;SDS011;13429;48.816;9.118;2022-12-18T09:55:39;62.13;;;30.20;;
25531;SDS011;13429;48.816;9.118;2022-12-18T10:00:35;69.10;;;32.17;;
25531;SDS011;13429;48.816;9.118;2022-12-18T10:12:16;70.60;;;32.25;;
25531;SDS011;13429;48.816;9.118;2022-12-18T10:18:01;63.72;;;29.30;;
25531;SDS011;13429;48.816;9.118;2022-12-18T10:26:37;58.25;;;29.67;;
25531;SDS011;13429;48.816;9.118;2022-12-18T10:32:17;64.38;;;29.58;;
25531;SDS011;13429;48.816;9.118;2022-12-18T10:34:47;71.53;;;30.13;;
25531;SDS011;13429;48.816;9.118;2022-12-18T10:37:17;63.53;;;31.13;;
25531;SDS011;13429;48.816;9.118;2022-12-18T10:39:44;62.25;;;30.92;;
25531;SDS011;13429;48.816;9.118;2022-12-18T10:42:13;62.08;;;29.63;;
25531;SDS011;13429;48.816;9.118;2022-12-18T10:47:10;69.97;;;32.65;;
25531;SDS011;13429;48.816;9.118;2022-12-18T10:49:37;63.17;;;30.13;;
25531;SDS011;13429;48.816;9.118;2022-12-18T10:52:15;63.72;;;30.45;;
25531;SDS011;13429;48.816;9.118;2022-12-18T10:54:49;68.65;;;30.48;;
25531;SDS011;13429;48.816;9.118;2022-12-18T10:57:38;60.55;;;29.38;;
25531;SDS011;13429;48.816;9.118;2022-12-18T11:02:47;70.43;;;30.05;;
25531;SDS011;13429;48.816;9.118;2022-12-18T11:05:26;60.50;;;28.98;;
25531;SDS011;13429;48.816;9.118;2022-12-18T11:07:53;67.50;;;30.55;;
25531;SDS011;13429;48.816;9.118;2022-12-18T11:10:21;65.20;;;29.58;;
25531;SDS011;13429;48.816;9.118;2022-12-18T11:12:50;60.22;;;28.83;;
25531;SDS011;13429;48.816;9.118;2022-12-18T11:15:21;66.90;;;30.48;;
25531;SDS011;13429;48.816;9.118;2022-12-18T11:17:50;60.50;;;29.40;;
25531;SDS011;13429;48.816;9.118;2022-12-18T11:20:27;69.60;;;31.52;;
25531;SDS011;13429;48.816;9.118;2022-12-18T11:23:02;84.38;;;37.53;;
25531;SDS011;13429;48.816;9.118;2022-12-18T11:25:28;66.78;;;32.78;;
25531;SDS011;13429;48.816;9.118;2022-12-18T11:27:56;65.30;;;31.05;;
25531;SDS011;13429;48.816;9.118;2022-12-18T11:30:24;61.70;;;29.70;;
25531;SDS011;13429;48.816;9.118;2022-12-18T11:33:01;58.38;;;27.42;;
25531;SDS011;13429;48.816;9.118;2022-12-18T11:38:33;68.85;;;30.90;;
25531;SDS011;13429;48.816;9.118;2022-12-18T11:41:21;65.70;;;29.60;;
25531;SDS011;13429;48.816;9.118;2022-12-18T11:44:09;70.82;;;28.38;;
25531;SDS011;13429;48.816;9.118;2022-12-18T11:46:37;63.33;;;29.30;;
25531;SDS011;13429;48.816;9.118;2022-12-18T11:51:49;63.13;;;28.58;;
25531;SDS011;13429;48.816;9.118;2022-12-18T11:54:17;59.00;;;26.67;;
25531;SDS011;13429;48.816;9.118;2022-12-18T11:56:46;59.13;;;26.85;;
25531;SDS011;13429;48.816;9.118;2022-12-18T12:01:52;61.47;;;27.92;;
25531;SDS011;13429;48.816;9.118;2022-12-18T12:12:55;55.65;;;24.23;;
25531;SDS011;13429;48.816;9.118;2022-12-18T12:19:49;52.05;;;25.08;;
25531;SDS011;13429;48.816;9.118;2022-12-18T12:34:55;48.47;;;24.33;;
25531;SDS011;13429;48.816;9.118;2022-12-18T12:40:26;47.42;;;23.38;;
25531;SDS011;13429;48.816;9.118;2022-12-18T12:42:54;48.30;;;23.48;;
25531;SDS011;13429;48.816;9.118;2022-12-18T12:48:06;52.38;;;23.75;;
25531;SDS011;13429;48.816;9.118;2022-12-18T12:50:36;49.90;;;22.20;;
25531;SDS011;13429;48.816;9.118;2022-12-18T12:53:05;57.05;;;25.15;;
25531;SDS011;13429;48.816;9.118;2022-12-18T12:55:33;52.53;;;23.80;;
25531;SDS011;13429;48.816;9.118;2022-12-18T12:58:02;56.53;;;23.83;;
25531;SDS011;13429;48.816;9.118;2022-12-18T13:00:39;54.10;;;24.58;;
25531;SDS011;13429;48.816;9.118;2022-12-18T13:03:12;43.40;;;22.25;;
25531;SDS011;13429;48.816;9.118;2022-12-18T13:05:43;50.55;;;22.40;;
25531;SDS011;13429;48.816;9.118;2022-12-18T13:08:12;50.00;;;22.00;;
25531;SDS011;13429;48.816;9.118;2022-12-18T13:10:47;46.58;;;22.52;;
25531;SDS011;13429;48.816;9.118;2022-12-18T13:13:13;51.30;;;23.75;;
25531;SDS011;13429;48.816;9.118;2022-12-18T13:15:41;49.67;;;23.17;;
25531;SDS011;13429;48.816;9.118;2022-12-18T13:20:35;50.95;;;23.52;;
25531;SDS011;13429;48.816;9.118;2022-12-18T13:23:18;51.58;;;22.80;;
25531;SDS011;13429;48.816;9.118;2022-12-18T13:25:45;48.50;;;22.38;;
25531;SDS011;13429;48.816;9.118;2022-12-18T13:28:12;53.20;;;24.33;;
25531;SDS011;13429;48.816;9.118;2022-12-18T13:30:43;45.38;;;21.52;;
25531;SDS011;13429;48.816;9.118;2022-12-18T13:36:23;48.92;;;22.55;;
25531;SDS011;13429;48.816;9.118;2022-12-18T13:40:58;54.15;;;22.88;;
25531;SDS011;13429;48.816;9.118;2022-12-18T13:46:00;45.35;;;20.10;;
25531;SDS011;13429;48.816;9.118;2022-12-18T13:48:27;44.40;;;21.00;;
25531;SDS011;13429;48.816;9.118;2022-12-18T13:50:56;47.78;;;21.25;;
25531;SDS011;13429;48.816;9.118;2022-12-18T13:53:26;47.20;;;21.35;;
25531;SDS011;13429;48.816;9.118;2022-12-18T13:55:53;51.03;;;21.53;;
25531;SDS011;13429;48.816;9.118;2022-12-18T13:58:20;46.67;;;20.50;;
25531;SDS011;13429;48.816;9.118;2022-12-18T14:00:46;42.85;;;21.30;;
25531;SDS011;13429;48.816;9.118;2022-12-18T14:03:19;48.63;;;22.58;;
25531;SDS011;13429;48.816;9.118;2022-12-18T14:05:45;53.30;;;20.75;;
25531;SDS011;13429;48.816;9.118;2022-12-18T14:08:12;47.03;;;20.58;;
25531;SDS011;13429;48.816;9.118;2022-12-18T14:10:43;49.35;;;21.33;;
25531;SDS011;13429;48.816;9.118;2022-12-18T14:13:10;49.30;;;21.85;;
25531;SDS011;13429;48.816;9.118;2022-12-18T14:20:32;51.70;;;23.42;;
25531;SDS011;13429;48.816;9.118;2022-12-18T14:22:58;45.08;;;22.73;;
25531;SDS011;13429;48.816;9.118;2022-12-18T14:25:28;47.50;;;22.33;;
25531;SDS011;13429;48.816;9.118;2022-12-18T14:30:43;45.70;;;21.50;;
25531;SDS011;13429;48.816;9.118;2022-12-18T14:33:10;43.75;;;21.35;;
25531;SDS011;13429;48.816;9.118;2022-12-18T14:36:13;48.40;;;22.63;;
25531;SDS011;13429;48.816;9.118;2022-12-18T14:38:36;51.33;;;23.15;;
25531;SDS011;13429;48.816;9.118;2022-12-18T14:43:38;54.58;;;23.27;;
25531;SDS011;13429;48.816;9.118;2022-12-18T14:46:05;50.78;;;22.98;;
25531;SDS011;13429;48.816;9.118;2022-12-18T14:48:38;49.83;;;23.42;;
25531;SDS011;13429;48.816;9.118;2022-12-18T14:53:41;47.40;;;21.75;;
25531;SDS011;13429;48.816;9.118;2022-12-18T14:56:15;51.63;;;24.00;;
25531;SDS011;13429;48.816;9.118;2022-12-18T15:01:21;53.17;;;24.95;;
25531;SDS011;13429;48.816;9.118;2022-12-18T15:03:47;51.72;;;25.38;;
25531;SDS011;13429;48.816;9.118;2022-12-18T15:07:01;56.53;;;25.80;;
25531;SDS011;13429;48.816;9.118;2022-12-18T15:09:21;55.13;;;26.80;;
25531;SDS011;13429;48.816;9.118;2022-12-18T15:11:48;56.42;;;26.77;;
25531;SDS011;13429;48.816;9.118;2022-12-18T15:14:22;56.17;;;25.33;;
25531;SDS011;13429;48.816;9.118;2022-12-18T15:16:54;61.78;;;27.23;;
25531;SDS011;13429;48.816;9.118;2022-12-18T15:19:31;64.30;;;28.17;;
25531;SDS011;13429;48.816;9.118;2022-12-18T15:21:58;57.58;;;26.30;;
25531;SDS011;13429;48.816;9.118;2022-12-18T15:24:26;60.22;;;26.65;;
25531;SDS011;13429;48.816;9.118;2022-12-18T15:26:52;57.45;;;25.98;;
25531;SDS011;13429;48.816;9.118;2022-12-18T15:29:20;64.90;;;27.35;;
25531;SDS011;13429;48.816;9.118;2022-12-18T15:32:04;61.72;;;28.77;;
25531;SDS011;13429;48.816;9.118;2022-12-18T15:34:31;64.05;;;27.67;;
25531;SDS011;13429;48.816;9.118;2022-12-18T15:36:59;64.25;;;27.48;;
25531;SDS011;13429;48.816;9.118;2022-12-18T15:39:25;66.90;;;29.98;;
25531;SDS011;13429;48.816;9.118;2022-12-18T15:41:51;58.22;;;27.42;;
25531;SDS011;13429;48.816;9.118;2022-12-18T15:44:36;68.25;;;28.65;;
25531;SDS011;13429;48.816;9.118;2022-12-18T15:47:02;59.47;;;26.48;;
25531;SDS011;13429;48.816;9.118;2022-12-18T15:49:29;62.17;;;27.83;;
25531;SDS011;13429;48.816;9.118;2022-12-18T15:51:59;64.50;;;28.45;;
25531;SDS011;13429;48.816;9.118;2022-12-18T15:54:25;58.72;;;24.85;;
25531;SDS011;13429;48.816;9.118;2022-12-18T15:57:10;54.08;;;25.00;;
25531;SDS011;13429;48.816;9.118;2022-12-18T15:59:49;56.30;;;26.63;;
25531;SDS011;13429;48.816;9.118;2022-12-18T16:02:16;59.90;;;26.38;;
25531;SDS011;13429;48.816;9.118;2022-12-18T16:04:43;62.33;;;26.85;;
25531;SDS011;13429;48.816;9.118;2022-12-18T16:07:10;63.30;;;26.20;;
25531;SDS011;13429;48.816;9.118;2022-12-18T16:09:37;61.15;;;26.85;;
25531;SDS011;13429;48.816;9.118;2022-12-18T16:12:03;58.22;;;25.77;;
25531;SDS011;13429;48.816;9.118;2022-12-18T16:14:30;67.43;;;29.55;;
25531;SDS011;13429;48.816;9.118;2022-12-18T16:16:58;63.22;;;29.38;;
25531;SDS011;13429;48.816;9.118;2022-12-18T16:19:24;67.82;;;28.23;;
25531;SDS011;13429;48.816;9.118;2022-12-18T16:21:51;61.53;;;29.30;;
25531;SDS011;13429;48.816;9.118;2022-12-18T16:24:18;61.90;;;27.15;;
25531;SDS011;13429;48.816;9.118;2022-12-18T16:26:46;62.17;;;27.30;;
25531;SDS011;13429;48.816;9.118;2022-12-18T16:29:13;59.67;;;27.20;;
25531;SDS011;13429;48.816;9.118;2022-12-18T16:31:39;62.72;;;29.42;;
25531;SDS011;13429;48.816;9.118;2022-12-18T16:36:37;58.78;;;27.95;;
25531;SDS011;13429;48.816;9.118;2022-12-18T16:39:03;63.88;;;28.02;;
25531;SDS011;13429;48.816;9.118;2022-12-18T16:41:29;59.78;;;27.15;;
25531;SDS011;13429;48.816;9.118;2022-12-18T16:43:58;62.63;;;29.60;;
25531;SDS011;13429;48.816;9.118;2022-12-18T16:46:24;63.83;;;27.30;;
25531;SDS011;13429;48.816;9.118;2022-12-18T16:48:50;66.68;;;27.45;;
25531;SDS011;13429;48.816;9.118;2022-12-18T16:51:16;60.80;;;27.95;;
25531;SDS011;13429;48.816;9.118;2022-12-18T16:53:42;68.75;;;30.63;;
25531;SDS011;13429;48.816;9.118;2022-12-18T16:56:08;59.28;;;27.77;;
25531;SDS011;13429;48.816;9.118;2022-12-18T16:58:34;62.80;;;26.63;;
25531;SDS011;13429;48.816;9.118;2022-12-18T17:01:00;63.55;;;28.23;;
25531;SDS011;13429;48.816;9.118;2022-12-18T17:03:26;65.85;;;30.05;;
25531;SDS011;13429;48.816;9.118;2022-12-18T17:05:52;61.08;;;29.13;;
25531;SDS011;13429;48.816;9.118;2022-12-18T17:08:18;62.80;;;27.98;;
25531;SDS011;13429;48.816;9.118;2022-12-18T17:10:45;62.88;;;30.15;;
25531;SDS011;13429;48.816;9.118;2022-12-18T17:13:11;62.22;;;29.00;;
25531;SDS011;13429;48.816;9.118;2022-12-18T17:15:37;64.50;;;27.77;;
25531;SDS011;13429;48.816;9.118;2022-12-18T17:18:03;65.75;;;28.83;;
25531;SDS011;13429;48.816;9.118;2022-12-18T17:20:29;69.30;;;30.65;;
25531;SDS011;13429;48.816;9.118;2022-12-18T17:22:56;63.83;;;28.42;;
25531;SDS011;13429;48.816;9.118;2022-12-18T17:25:22;58.35;;;26.90;;
25531;SDS011;13429;48.816;9.118;2022-12-18T17:27:49;56.92;;;25.35;;
25531;SDS011;13429;48.816;9.118;2022-12-18T17:30:15;66.50;;;29.77;;
25531;SDS011;13429;48.816;9.118;2022-12-18T17:32:41;126.30;;;54.95;;
25531;SDS011;13429;48.816;9.118;2022-12-18T17:35:07;76.57;;;34.00;;
25531;SDS011;13429;48.816;9.118;2022-12-18T17:37:33;59.15;;;27.88;;
25531;SDS011;13429;48.816;9.118;2022-12-18T17:39:59;62.83;;;29.30;;
25531;SDS011;13429;48.816;9.118;2022-12-18T17:42:25;64.10;;;28.63;;
25531;SDS011;13429;48.816;9.118;2022-12-18T17:44:51;63.95;;;29.50;;
25531;SDS011;13429;48.816;9.118;2022-12-18T17:47:17;65.72;;;30.55;;
25531;SDS011;13429;48.816;9.118;2022-12-18T17:49:44;60.85;;;27.73;;
25531;SDS011;13429;48.816;9.118;2022-12-18T17:52:10;68.10;;;30.75;;
25531;SDS011;13429;48.816;9.118;2022-12-18T17:54:36;63.17;;;29.05;;
25531;SDS011;13429;48.816;9.118;2022-12-18T17:57:05;57.83;;;28.25;;
25531;SDS011;13429;48.816;9.118;2022-12-18T17:59:31;63.13;;;29.05;;
25531;SDS011;13429;48.816;9.118;2022-12-18T18:01:57;57.38;;;25.98;;
25531;SDS011;13429;48.816;9.118;2022-12-18T18:04:23;58.15;;;29.70;;
25531;SDS011;13429;48.816;9.118;2022-12-18T18:06:49;62.28;;;27.98;;
25531;SDS011;13429;48.816;9.118;2022-12-18T18:09:15;59.75;;;28.55;;
25531;SDS011;13429;48.816;9.118;2022-12-18T18:11:41;63.67;;;27.65;;
25531;SDS011;13429;48.816;9.118;2022-12-18T18:14:26;65.25;;;27.85;;
25531;SDS011;13429;48.816;9.118;2022-12-18T18:16:52;60.38;;;28.00;;
25531;SDS011;13429;48.816;9.118;2022-12-18T18:19:22;64.43;;;28.00;;
25531;SDS011;13429;48.816;9.118;2022-12-18T18:21:49;64.10;;;28.42;;
25531;SDS011;13429;48.816;9.118;2022-12-18T18:24:17;65.03;;;29.58;;
25531;SDS011;13429;48.816;9.118;2022-12-18T18:26:43;58.50;;;27.52;;
25531;SDS011;13429;48.816;9.118;2022-12-18T18:29:20;67.30;;;29.25;;
25531;SDS011;13429;48.816;9.118;2022-12-18T18:31:47;61.75;;;26.63;;
25531;SDS011;13429;48.816;9.118;2022-12-18T18:34:14;60.42;;;27.63;;
25531;SDS011;13429;48.816;9.118;2022-12-18T18:36:40;58.67;;;27.65;;
25531;SDS011;13429;48.816;9.118;2022-12-18T18:39:07;65.05;;;29.08;;
25531;SDS011;13429;48.816;9.118;2022-12-18T18:41:33;66.90;;;27.27;;
25531;SDS011;13429;48.816;9.118;2022-12-18T18:43:59;63.65;;;29.45;;
25531;SDS011;13429;48.816;9.118;2022-12-18T18:46:25;58.78;;;26.48;;
25531;SDS011;13429;48.816;9.118;2022-12-18T18:48:51;64.05;;;27.42;;
25531;SDS011;13429;48.816;9.118;2022-12-18T18:51:18;60.38;;;26.98;;
25531;SDS011;13429;48.816;9.118;2022-12-18T18:53:45;63.70;;;28.10;;
25531;SDS011;13429;48.816;9.118;2022-12-18T18:56:12;66.53;;;29.08;;
25531;SDS011;13429;48.816;9.118;2022-12-18T18:58:39;61.97;;;26.45;;
25531;SDS011;13429;48.816;9.118;2022-12-18T19:01:13;58.45;;;26.85;;
25531;SDS011;13429;48.816;9.118;2022-12-18T19:03:39;58.88;;;26.27;;
25531;SDS011;13429;48.816;9.118;2022-12-18T19:06:05;57.17;;;26.60;;
25531;SDS011;13429;48.816;9.118;2022-12-18T19:08:33;66.57;;;28.58;;
25531;SDS011;13429;48.816;9.118;2022-12-18T19:10:59;62.42;;;28.15;;
25531;SDS011;13429;48.816;9.118;2022-12-18T19:13:27;57.58;;;27.17;;
25531;SDS011;13429;48.816;9.118;2022-12-18T19:15:54;64.18;;;27.77;;
25531;SDS011;13429;48.816;9.118;2022-12-18T19:18:21;57.90;;;28.70;;
25531;SDS011;13429;48.816;9.118;2022-12-18T19:20:57;67.53;;;31.05;;
25531;SDS011;13429;48.816;9.118;2022-12-18T19:23:23;64.40;;;29.58;;
25531;SDS011;13429;48.816;9.118;2022-12-18T19:25:49;64.35;;;27.77;;
25531;SDS011;13429;48.816;9.118;2022-12-18T19:28:15;63.20;;;28.15;;
25531;SDS011;13429;48.816;9.118;2022-12-18T19:30:41;64.65;;;27.90;;
25531;SDS011;13429;48.816;9.118;2022-12-18T19:33:07;56.17;;;27.40;;
25531;SDS011;13429;48.816;9.118;2022-12-18T19:35:33;65.22;;;30.45;;
25531;SDS011;13429;48.816;9.118;2022-12-18T19:37:59;55.63;;;26.50;;
25531;SDS011;13429;48.816;9.118;2022-12-18T19:40:25;63.83;;;26.70;;
25531;SDS011;13429;48.816;9.118;2022-12-18T19:42:51;60.00;;;27.15;;
25531;SDS011;13429;48.816;9.118;2022-12-18T19:45:17;63.25;;;27.38;;
25531;SDS011;13429;48.816;9.118;2022-12-18T19:47:44;58.30;;;27.65;;
25531;SDS011;13429;48.816;9.118;2022-12-18T19:50:09;64.28;;;27.67;;
25531;SDS011;13429;48.816;9.118;2022-12-18T19:52:36;66.93;;;31.13;;
25531;SDS011;13429;48.816;9.118;2022-12-18T19:55:01;69.30;;;29.15;;
25531;SDS011;13429;48.816;9.118;2022-12-18T19:57:28;67.85;;;28.77;;
25531;SDS011;13429;48.816;9.118;2022-12-18T19:59:54;65.82;;;29.80;;
25531;SDS011;13429;48.816;9.118;2022-12-18T20:02:20;59.75;;;28.30;;
25531;SDS011;13429;48.816;9.118;2022-12-18T20:04:46;70.70;;;29.95;;
25531;SDS011;13429;48.816;9.118;2022-12-18T20:07:13;66.05;;;30.27;;
25531;SDS011;13429;48.816;9.118;2022-12-18T20:09:39;68.68;;;31.20;;
25531;SDS011;13429;48.816;9.118;2022-12-18T20:12:05;70.70;;;32.35;;
25531;SDS011;13429;48.816;9.118;2022-12-18T20:14:31;63.17;;;29.80;;
25531;SDS011;13429;48.816;9.118;2022-12-18T20:16:57;69.05;;;30.67;;
25531;SDS011;13429;48.816;9.118;2022-12-18T20:19:23;68.40;;;31.00;;
25531;SDS011;13429;48.816;9.118;2022-12-18T20:21:49;64.70;;;30.25;;
25531;SDS011;13429;48.816;9.118;2022-12-18T20:24:15;68.18;;;31.30;;
25531;SDS011;13429;48.816;9.118;2022-12-18T20:26:41;64.82;;;28.08;;
25531;SDS011;13429;48.816;9.118;2022-12-18T20:29:07;68.32;;;29.20;;
25531;SDS011;13429;48.816;9.118;2022-12-18T20:31:33;67.63;;;28.98;;
25531;SDS011;13429;48.816;9.118;2022-12-18T20:33:59;66.90;;;30.35;;
25531;SDS011;13429;48.816;9.118;2022-12-18T20:36:25;59.30;;;27.73;;
25531;SDS011;13429;48.816;9.118;2022-12-18T20:38:51;67.07;;;29.48;;
25531;SDS011;13429;48.816;9.118;2022-12-18T20:41:19;65.97;;;28.98;;
25531;SDS011;13429;48.816;9.118;2022-12-18T20:43:45;66.13;;;28.38;;
25531;SDS011;13429;48.816;9.118;2022-12-18T20:46:12;69.72;;;29.90;;
25531;SDS011;13429;48.816;9.118;2022-12-18T20:48:38;61.80;;;29.10;;
25531;SDS011;13429;48.816;9.118;2022-12-18T20:51:06;64.00;;;30.73;;
25531;SDS011;13429;48.816;9.118;2022-12-18T20:53:32;63.65;;;29.00;;
25531;SDS011;13429;48.816;9.118;2022-12-18T20:55:59;72.03;;;32.53;;
25531;SDS011;13429;48.816;9.118;2022-12-18T20:58:26;70.55;;;31.25;;
25531;SDS011;13429;48.816;9.118;2022-12-18T21:01:08;76.28;;;32.90;;
25531;SDS011;13429;48.816;9.118;2022-12-18T21:03:34;82.40;;;38.08;;
25531;SDS011;13429;48.816;9.118;2022-12-18T21:06:00;77.00;;;36.65;;
25531;SDS011;13429;48.816;9.118;2022-12-18T21:08:26;82.18;;;36.17;;
25531;SDS011;13429;48.816;9.118;2022-12-18T21:10:52;68.10;;;33.13;;
25531;SDS011;13429;48.816;9.118;2022-12-18T21:13:18;77.82;;;34.97;;
25531;SDS011;13429;48.816;9.118;2022-12-18T21:15:44;72.15;;;32.47;;
25531;SDS011;13429;48.816;9.118;2022-12-18T21:18:10;65.28;;;31.38;;
25531;SDS011;13429;48.816;9.118;2022-12-18T21:20:36;62.50;;;31.20;;
25531;SDS011;13429;48.816;9.118;2022-12-18T21:23:02;65.57;;;30.02;;
25531;SDS011;13429;48.816;9.118;2022-12-18T21:25:30;66.30;;;31.20;;
25531;SDS011;13429;48.816;9.118;2022-12-18T21:27:56;69.28;;;32.38;;
25531;SDS011;13429;48.816;9.118;2022-12-18T21:30:22;70.55;;;31.85;;
25531;SDS011;13429;48.816;9.118;2022-12-18T21:32:48;67.20;;;31.63;;
25531;SDS011;13429;48.816;9.118;2022-12-18T21:35:14;74.82;;;34.42;;
25531;SDS011;13429;48.816;9.118;2022-12-18T21:37:40;69.85;;;32.17;;
25531;SDS011;13429;48.816;9.118;2022-12-18T21:40:06;73.90;;;32.85;;
25531;SDS011;13429;48.816;9.118;2022-12-18T21:42:33;66.80;;;29.70;;
25531;SDS011;13429;48.816;9.118;2022-12-18T21:45:18;65.72;;;29.25;;
25531;SDS011;13429;48.816;9.118;2022-12-18T21:47:44;65.38;;;31.23;;
25531;SDS011;13429;48.816;9.118;2022-12-18T21:50:10;66.82;;;30.95;;
25531;SDS011;13429;48.816;9.118;2022-12-18T21:52:36;66.07;;;30.27;;
25531;SDS011;13429;48.816;9.118;2022-12-18T21:55:02;74.60;;;32.08;;
25531;SDS011;13429;48.816;9.118;2022-12-18T21:57:28;61.03;;;29.88;;
25531;SDS011;13429;48.816;9.118;2022-12-18T21:59:54;66.55;;;31.65;;
25531;SDS011;13429;48.816;9.118;2022-12-18T22:02:21;68.00;;;32.50;;
25531;SDS011;13429;48.816;9.118;2022-12-18T22:04:47;62.70;;;27.77;;
25531;SDS011;13429;48.816;9.118;2022-12-18T22:07:13;66.50;;;30.65;;
25531;SDS011;13429;48.816;9.118;2022-12-18T22:09:40;61.05;;;29.27;;
25531;SDS011;13429;48.816;9.118;2022-12-18T22:12:06;69.80;;;31.48;;
25531;SDS011;13429;48.816;9.118;2022-12-18T22:14:35;71.22;;;32.28;;
25531;SDS011;13429;48.816;9.118;2022-12-18T22:17:01;68.07;;;32.60;;
25531;SDS011;13429;48.816;9.118;2022-12-18T22:19:27;70.45;;;33.53;;
25531;SDS011;13429;48.816;9.118;2022-12-18T22:21:53;66.35;;;31.63;;
25531;SDS011;13429;48.816;9.118;2022-12-18T22:24:20;72.28;;;30.58;;
25531;SDS011;13429;48.816;9.118;2022-12-18T22:26:47;73.85;;;30.40;;
25531;SDS011;13429;48.816;9.118;2022-12-18T22:29:23;68.93;;;29.77;;
25531;SDS011;13429;48.816;9.118;2022-12-18T22:32:09;67.18;;;32.70;;
25531;SDS011;13429;48.816;9.118;2022-12-18T22:34:36;63.08;;;28.17;;
25531;SDS011;13429;48.816;9.118;2022-12-18T22:37:03;66.90;;;30.70;;
25531;SDS011;13429;48.816;9.118;2022-12-18T22:39:29;62.15;;;29.75;;
25531;SDS011;13429;48.816;9.118;2022-12-18T22:41:56;65.88;;;30.83;;
25531;SDS011;13429;48.816;9.118;2022-12-18T22:44:22;64.35;;;29.33;;
25531;SDS011;13429;48.816;9.118;2022-12-18T22:46:48;69.68;;;30.52;;
25531;SDS011;13429;48.816;9.118;2022-12-18T22:49:16;68.82;;;30.98;;
25531;SDS011;13429;48.816;9.118;2022-12-18T22:51:42;60.65;;;28.73;;
25531;SDS011;13429;48.816;9.118;2022-12-18T22:54:08;62.53;;;31.35;;
25531;SDS011;13429;48.816;9.118;2022-12-18T22:56:34;66.40;;;29.73;;